Lambric, Kentucky
Current Conditions -  °F | °C
As of 12:53 AM on Monday 20 Oct 2014 (Local Time) from KJKL Reporting Station
Clear Clear  
Wind Chill: 45°   Ceiling: Unl
Heat Index: 45°   Visibility: 10mi
Dew Point: 40°   Wind: 3mph
Humidity: 82%   Direction: 190°S
Pressure: 30.07"   Gusts: NA
Location:  37.532°N, 83.3068°W
Report Text: KJKL 200453Z AUTO 19003KT 10SM CLR 07/04 A3007 RMK AO2 SLP182 T00720044 401500067
Loading
Personal Weather Stations






























Interactive Weather Map
Tropical Storm Tracking
New forecast layout! Learn more

10-Day Weather Forecast

Advertisements
Track Severe Weather on mobile